Time;durP1;ratioP1;P1;durP2;ratioP2;P2;SDS_P1;SDS_P2;PMS_P1;PMS_P2;Temp;Humidity;BMP_temperature;BMP_pressure;BME280_temperature;BME280_humidity;BME280_pressure;Samples;Min_cycle;Max_cycle;Signal;HPM_P1;HPM_P2
2023/02/01 00:01:22;;;;;;;18.50;9.10;;;;;;;0.96;77.85;98695.58;80639;1298;3026792;-62
2023/02/01 00:03:48;;;;;;;20.30;9.70;;;;;;;0.96;77.99;98691.41;81906;1298;3013380;-63
2023/02/01 00:06:15;;;;;;;22.30;10.60;;;;;;;0.99;77.85;98689.42;81880;1297;3011397;-63
2023/02/01 00:08:43;;;;;;;23.20;10.20;;;;;;;1.10;78.11;98693.20;80696;1297;3026989;-64
2023/02/01 00:11:11;;;;;;;22.70;10.00;;;;;;;1.07;77.61;98693.48;81921;1301;3012733;-63
2023/02/01 00:13:42;;;;;;;23.60;9.90;;;;;;;1.04;77.66;98693.08;81354;1299;3011171;-62
2023/02/01 00:16:29;;;;;;;19.50;9.90;;;;;;;1.02;77.94;98693.12;81912;1297;3013087;-63
2023/02/01 00:19:02;;;;;;;25.00;10.00;;;;;;;0.95;78.08;98691.64;80642;1298;3052762;-64
2023/02/01 00:21:30;;;;;;;26.30;11.10;;;;;;;0.92;78.25;98686.41;81893;1298;3011742;-62
2023/02/01 00:23:57;;;;;;;21.50;10.40;;;;;;;0.88;78.12;98686.34;80685;1297;3050476;-64
2023/02/01 00:26:33;;;;;;;18.40;10.60;;;;;;;0.84;78.34;98683.04;81930;1297;3013114;-61
2023/02/01 00:29:03;;;;;;;22.10;10.60;;;;;;;0.85;78.32;98681.95;80643;1297;3052244;-62
2023/02/01 00:31:29;;;;;;;19.50;9.20;;;;;;;0.82;78.55;98680.35;81909;1297;3013072;-61
2023/02/01 00:33:56;;;;;;;23.80;10.70;;;;;;;0.79;78.56;98682.16;81923;1297;3011002;-63
2023/02/01 00:36:24;;;;;;;16.40;7.80;;;;;;;0.71;78.58;98682.25;80618;1297;3049686;-63
2023/02/01 00:38:51;;;;;;;14.70;7.40;;;;;;;1.24;77.72;98678.23;81927;1301;3012740;-63
2023/02/01 00:41:19;;;;;;;15.10;9.00;;;;;;;1.96;75.16;98677.35;81890;1298;3011374;-62
2023/02/01 00:43:48;;;;;;;24.60;10.60;;;;;;;2.15;73.93;98677.79;80624;1299;3051016;-61
2023/02/01 00:46:16;;;;;;;24.20;11.50;;;;;;;2.08;73.36;98680.50;81829;1297;3011188;-63
2023/02/01 00:48:42;;;;;;;23.60;12.50;;;;;;;1.85;74.13;98673.77;81915;1298;3011369;-62
2023/02/01 00:51:15;;;;;;;22.70;12.50;;;;;;;1.69;74.69;98672.13;80558;1297;3049290;-63
2023/02/01 00:53:42;;;;;;;25.80;13.00;;;;;;;1.50;75.31;98667.30;81871;1297;3011215;-63
2023/02/01 00:56:10;;;;;;;25.30;11.90;;;;;;;1.33;75.96;98664.45;80661;1298;3052420;-62
2023/02/01 00:58:37;;;;;;;23.80;11.90;;;;;;;1.29;76.28;98663.20;81874;1297;3012743;-62
2023/02/01 01:01:10;;;;;;;27.40;13.10;;;;;;;1.10;76.85;98659.23;81918;1297;3011277;-62
2023/02/01 01:03:40;;;;;;;26.70;13.10;;;;;;;1.03;77.55;98658.95;80645;1298;3048021;-62
2023/02/01 01:06:11;;;;;;;25.80;13.30;;;;;;;0.93;77.86;98652.38;81915;1297;3011236;-62
2023/02/01 01:08:39;;;;;;;28.00;13.10;;;;;;;0.82;77.86;98654.97;80644;1297;3048730;-61
2023/02/01 01:11:08;;;;;;;26.60;12.50;;;;;;;0.71;78.60;98653.47;81908;1298;3011292;-61
2023/02/01 01:13:37;;;;;;;21.10;10.80;;;;;;;0.70;79.02;98653.17;81376;1298;3011235;-61
2023/02/01 01:16:05;;;;;;;21.60;11.20;;;;;;;0.59;79.12;98651.45;81941;1297;3018047;-61
2023/02/01 01:18:33;;;;;;;21.40;11.30;;;;;;;0.61;79.14;98649.84;81882;1297;3010971;-63
2023/02/01 01:21:01;;;;;;;21.40;11.40;;;;;;;0.58;79.22;98647.53;80634;1297;3048041;-62
2023/02/01 01:23:28;;;;;;;20.50;10.90;;;;;;;0.62;79.36;98646.38;81942;1298;3012811;-63
2023/02/01 01:25:54;;;;;;;22.70;11.10;;;;;;;0.63;79.50;98644.25;81924;1297;3011114;-60
2023/02/01 01:28:22;;;;;;;21.70;10.80;;;;;;;0.64;79.17;98641.81;80561;1302;3026262;-62
2023/02/01 01:30:49;;;;;;;25.40;11.30;;;;;;;0.63;78.74;98643.59;81911;1298;3018139;-61
2023/02/01 01:33:15;;;;;;;23.20;11.50;;;;;;;0.59;79.08;98644.23;81836;1298;3011148;-61
2023/02/01 01:35:43;;;;;;;21.50;9.90;;;;;;;0.59;79.42;98639.40;80675;1298;3026444;-62
2023/02/01 01:38:11;;;;;;;15.90;8.10;;;;;;;1.14;77.97;98636.99;81855;1297;3018684;-63
2023/02/01 01:40:37;;;;;;;21.40;9.20;;;;;;;1.80;75.07;98639.23;81898;1297;3011054;-61
2023/02/01 01:43:13;;;;;;;22.50;10.20;;;;;;;1.92;73.87;98641.38;80598;1297;3025718;-62
2023/02/01 01:45:41;;;;;;;17.60;9.40;;;;;;;1.92;74.24;98645.37;80534;1298;3067932;-63
2023/02/01 01:48:19;;;;;;;16.00;8.70;;;;;;;1.83;74.60;98648.98;81918;1297;3018676;-62
2023/02/01 01:50:50;;;;;;;20.90;10.70;;;;;;;1.82;74.27;98648.17;80566;1297;3049104;-63
2023/02/01 01:53:23;;;;;;;19.90;10.50;;;;;;;1.58;74.51;98650.96;81854;1297;3011475;-60
2023/02/01 01:55:51;;;;;;;21.00;10.60;;;;;;;1.44;75.31;98651.63;80541;1300;3050530;-63
2023/02/01 01:58:19;;;;;;;23.10;10.40;;;;;;;1.33;75.71;98647.20;81796;1300;3012387;-63
2023/02/01 02:00:46;;;;;;;21.40;9.70;;;;;;;1.11;76.39;98644.00;81842;1298;3011363;-62
2023/02/01 02:03:39;;;;;;;23.20;10.60;;;;;;;1.09;76.91;98642.33;80615;1298;3052657;-63
2023/02/01 02:06:15;;;;;;;24.00;10.40;;;;;;;1.02;76.87;98644.33;80641;1297;3056826;-64
2023/02/01 02:08:43;;;;;;;23.40;11.20;;;;;;;1.02;77.27;98644.86;80507;1298;3049444;-62
2023/02/01 02:11:11;;;;;;;26.00;11.40;;;;;;;0.97;77.18;98646.90;81887;1298;3018385;-63
2023/02/01 02:13:40;;;;;;;25.60;11.60;;;;;;;0.99;77.37;98644.75;81828;1297;3011025;-63
2023/02/01 02:16:46;;;;;;;38.30;14.30;;;;;;;0.97;77.09;98645.18;80553;1301;3052783;-61
2023/02/01 02:19:39;;;;;;;35.80;13.10;;;;;;;0.82;77.81;98645.51;80583;1297;3068974;-61
2023/02/01 02:22:27;;;;;;;30.90;13.60;;;;;;;0.78;78.46;98645.45;80664;1297;3051474;-63
2023/02/01 04:55:37;;;;;;;15.80;5.70;;;;;;;-0.99;86.33;98671.44;80208;1299;3013774;-64
2023/02/01 04:58:04;;;;;;;19.10;8.20;;;;;;;-0.23;84.87;98667.91;79064;1302;3013619;-65
2023/02/01 05:00:31;;;;;;;25.40;10.20;;;;;;;0.76;81.42;98664.16;79007;1305;3013127;-63
2023/02/01 05:02:59;;;;;;;22.20;9.60;;;;;;;1.22;79.25;98664.67;77664;1307;3052169;-64
2023/02/01 05:05:26;;;;;;;21.50;9.40;;;;;;;1.21;77.41;98665.91;78976;1306;3012936;-63
2023/02/01 05:07:53;;;;;;;19.70;9.40;;;;;;;1.02;77.14;98666.20;77703;1302;3011511;-63
2023/02/01 05:10:21;;;;;;;17.90;9.20;;;;;;;0.94;77.06;98663.73;78035;1302;3049477;-65
2023/02/01 05:15:35;;;;;;;21.40;9.20;;;;;;;0.56;78.37;98669.63;78086;1301;3052793;-63
2023/02/01 05:18:02;;;;;;;21.60;10.40;;;;;;;0.63;78.78;98676.83;79184;1301;3012846;-63
2023/02/01 05:20:29;;;;;;;28.30;12.00;;;;;;;0.61;78.85;98687.07;79070;1301;3011650;-62
2023/02/01 05:22:57;;;;;;;25.40;12.10;;;;;;;0.59;78.85;98694.21;77903;1301;3026319;-64
2023/02/01 05:25:24;;;;;;;27.30;12.60;;;;;;;0.61;78.90;98698.96;79395;1301;3011695;-64
2023/02/01 05:27:50;;;;;;;31.30;13.90;;;;;;;0.51;78.56;98702.02;79544;1298;3011567;-64
2023/02/01 05:30:19;;;;;;;32.50;13.10;;;;;;;0.44;78.62;98705.71;78032;1301;3025807;-63
2023/02/01 05:32:49;;;;;;;27.50;9.30;;;;;;;0.45;78.78;98709.31;79245;1298;3013200;-65
2023/02/01 05:35:17;;;;;;;22.70;8.90;;;;;;;1.02;78.36;98706.75;78094;1301;3051317;-64
2023/02/01 05:37:46;;;;;;;28.20;10.80;;;;;;;1.46;75.79;98703.17;79184;1299;3011860;-62
2023/02/01 05:40:12;;;;;;;27.60;11.30;;;;;;;1.36;75.04;98705.94;79249;1297;3013282;-68
2023/02/01 05:42:40;;;;;;;27.70;12.10;;;;;;;1.16;75.66;98705.58;78123;1301;3050375;-64
2023/02/01 05:45:08;;;;;;;30.50;12.20;;;;;;;1.15;75.70;98707.34;79240;1301;3018802;-63
2023/02/01 05:47:34;;;;;;;27.80;11.90;;;;;;;0.89;76.13;98713.23;79191;1301;3011979;-64
2023/02/01 05:50:04;;;;;;;32.20;13.70;;;;;;;0.75;76.67;98709.89;77907;1298;3049947;-62
2023/02/01 05:52:32;;;;;;;24.00;11.10;;;;;;;0.82;77.82;98710.86;79347;1304;3013958;-62
2023/02/01 05:54:59;;;;;;;24.50;10.90;;;;;;;0.86;77.66;98705.75;79196;1299;3011640;-62
2023/02/01 05:57:27;;;;;;;24.80;11.90;;;;;;;0.75;77.27;98703.15;77930;1301;3049418;-63
2023/02/01 05:59:53;;;;;;;27.60;12.40;;;;;;;0.51;77.92;98706.50;79237;1311;3012910;-63
2023/02/01 06:02:21;;;;;;;32.30;13.90;;;;;;;0.49;78.55;98715.19;79130;1301;3013420;-63
2023/02/01 06:04:50;;;;;;;32.00;12.80;;;;;;;0.39;78.54;98717.94;78049;1305;3051614;-63
2023/02/01 06:07:16;;;;;;;22.50;10.90;;;;;;;0.27;78.52;98718.13;79612;1298;3013896;-63
2023/02/01 06:09:43;;;;;;;23.80;10.10;;;;;;;0.09;78.98;98714.00;79158;1298;3011903;-64
2023/02/01 06:12:14;;;;;;;29.90;12.30;;;;;;;0.08;79.18;98716.60;77932;1301;3050071;-62
2023/02/01 06:14:43;;;;;;;21.80;9.70;;;;;;;0.18;79.52;98715.96;79328;1303;3012434;-62
2023/02/01 06:17:13;;;;;;;21.00;8.60;;;;;;;0.24;79.19;98714.23;77899;1301;3069003;-62
2023/02/01 06:19:40;;;;;;;23.00;8.40;;;;;;;0.31;78.78;98717.48;79339;1299;3013958;-65
2023/02/01 06:22:07;;;;;;;22.70;9.20;;;;;;;0.70;77.67;98719.85;79330;1298;3011865;-65
2023/02/01 06:24:35;;;;;;;21.40;8.60;;;;;;;1.49;75.62;98719.09;78166;1301;3053068;-62
2023/02/01 06:27:03;;;;;;;27.10;11.20;;;;;;;1.78;73.70;98719.09;79677;1304;3013301;-64
2023/02/01 06:29:30;;;;;;;29.10;13.40;;;;;;;1.72;73.45;98716.21;82034;1295;3011412;-63
2023/02/01 06:31:58;;;;;;;31.60;12.30;;;;;;;1.54;73.49;98714.11;80803;1295;3068899;-63
2023/02/01 06:34:27;;;;;;;26.60;10.70;;;;;;;1.54;73.93;98717.88;82056;1295;3011579;-62
2023/02/01 06:36:56;;;;;;;22.40;10.30;;;;;;;1.59;73.68;98716.50;81512;1296;3010998;-62
2023/02/01 06:39:23;;;;;;;24.80;10.10;;;;;;;1.45;73.77;98715.81;82035;1298;3012583;-62
2023/02/01 06:41:50;;;;;;;20.30;9.20;;;;;;;1.30;74.09;98722.52;82019;1295;3011233;-63
2023/02/01 06:44:18;;;;;;;20.10;8.90;;;;;;;1.35;73.62;98719.77;80769;1298;3052217;-63
2023/02/01 06:46:45;;;;;;;24.00;10.30;;;;;;;1.24;73.73;98718.09;82070;1298;3012497;-63
2023/02/01 06:49:12;;;;;;;19.10;9.60;;;;;;;1.30;74.22;98715.45;82060;1295;3011285;-65
2023/02/01 06:51:40;;;;;;;21.60;9.80;;;;;;;1.31;73.22;98714.36;80785;1296;3055201;-64
2023/02/01 06:54:07;;;;;;;19.90;9.60;;;;;;;1.32;72.97;98720.55;82027;1296;3018108;-63
2023/02/01 06:56:38;;;;;;;21.30;10.20;;;;;;;1.22;73.28;98724.89;82000;1300;3011289;-64
2023/02/01 06:59:09;;;;;;;21.00;10.60;;;;;;;1.38;73.75;98723.30;80781;1295;3052459;-64
2023/02/01 07:01:38;;;;;;;;;;;;;;;1.27;72.99;98723.50;81965;1298;3010931;-67
2023/02/01 07:04:09;;;;;;;21.40;10.40;;;;;;;1.24;73.16;98723.95;80772;1296;3069376;-65
2023/02/01 07:06:37;;;;;;;25.10;12.10;;;;;;;1.26;73.17;98725.92;81945;1298;3011213;-64
2023/02/01 07:09:06;;;;;;;27.90;12.60;;;;;;;1.20;73.43;98728.06;80733;1301;3026026;-65
2023/02/01 07:11:34;;;;;;;26.90;12.10;;;;;;;1.12;73.52;98724.85;81962;1298;3012598;-63
2023/02/01 07:14:05;;;;;;;27.80;12.60;;;;;;;1.17;73.50;98719.86;80763;1296;3050162;-64
2023/02/01 07:16:33;;;;;;;20.90;10.40;;;;;;;1.20;72.89;98721.69;82012;1298;3012966;-64
2023/02/01 07:19:00;;;;;;;28.40;13.90;;;;;;;1.30;72.93;98720.63;81979;1295;3011368;-65
2023/02/01 07:21:28;;;;;;;39.70;17.60;;;;;;;1.40;72.73;98719.41;80713;1301;3049316;-64
2023/02/01 07:23:55;;;;;;;39.20;19.80;;;;;;;1.47;72.43;98719.36;82031;1295;3012683;-64
2023/02/01 07:26:24;;;;;;;46.70;22.70;;;;;;;1.53;72.51;98719.30;82013;1295;3011219;-62
2023/02/01 07:28:53;;;;;;;43.00;20.10;;;;;;;1.56;72.64;98721.63;80735;1299;3050645;-63
2023/02/01 07:31:22;;;;;;;42.30;21.00;;;;;;;1.54;72.79;98721.88;82026;1295;3011480;-64
2023/02/01 07:33:51;;;;;;;41.00;18.50;;;;;;;1.59;72.84;98722.73;81498;1300;3011658;-63
2023/02/01 07:36:18;;;;;;;40.50;16.00;;;;;;;1.82;72.20;98721.21;82032;1301;3012706;-63
2023/02/01 07:38:46;;;;;;;37.20;16.90;;;;;;;1.84;71.18;98718.34;82006;1295;3011547;-63
2023/02/01 07:41:14;;;;;;;44.80;19.20;;;;;;;1.77;71.37;98724.50;80727;1295;3047979;-63
2023/02/01 07:43:41;;;;;;;44.50;19.80;;;;;;;1.69;71.57;98726.00;82029;1298;3013229;-63
2023/02/01 07:46:09;;;;;;;46.10;20.80;;;;;;;1.81;72.03;98729.02;82034;1295;3011178;-64
2023/02/01 07:48:38;;;;;;;47.00;20.50;;;;;;;1.89;72.10;98726.67;80710;1298;3051047;-63
2023/02/01 07:51:10;;;;;;;43.70;20.50;;;;;;;1.92;71.54;98724.13;82016;1298;3013369;-64
2023/02/01 07:53:39;;;;;;;39.30;18.90;;;;;;;1.94;71.18;98725.60;80674;1295;3054823;-63
2023/02/01 07:56:12;;;;;;;49.20;20.90;;;;;;;1.91;71.06;98725.02;82043;1295;3012671;-65
2023/02/01 07:58:40;;;;;;;46.80;20.70;;;;;;;2.02;71.00;98721.67;80746;1294;3050189;-65
2023/02/01 08:01:26;;;;;;;49.50;20.50;;;;;;;2.06;71.50;98722.75;82049;1295;3012694;-65
2023/02/01 08:03:59;;;;;;;50.70;20.80;;;;;;;2.12;71.25;98724.77;80747;1295;3069098;-65
2023/02/01 08:06:27;;;;;;;56.90;22.00;;;;;;;2.18;71.47;98727.99;82042;1295;3011449;-65
2023/02/01 08:08:55;;;;;;;53.40;19.70;;;;;;;2.31;71.14;98723.54;80732;1295;3055828;-64
2023/02/01 08:11:22;;;;;;;51.20;18.20;;;;;;;2.48;70.67;98724.94;81999;1296;3011309;-65
2023/02/01 08:13:49;;;;;;;49.10;18.70;;;;;;;2.48;70.51;98723.05;82002;1300;3011205;-65
2023/02/01 08:16:18;;;;;;;42.00;15.60;;;;;;;2.41;70.50;98727.42;80772;1301;3050724;-63
2023/02/01 08:18:44;;;;;;;35.30;14.20;;;;;;;2.60;69.91;98724.28;82047;1298;3012642;-64
2023/02/01 08:21:15;;;;;;;31.00;13.80;;;;;;;2.47;69.68;98718.40;82004;1295;3011289;-63
2023/02/01 08:23:43;;;;;;;31.20;12.50;;;;;;;2.53;69.76;98717.48;80731;1295;3055163;-65
2023/02/01 08:26:22;;;;;;;37.60;17.80;;;;;;;2.49;69.92;98716.77;82028;1295;3011175;-64
2023/02/01 08:28:54;;;;;;;37.40;17.30;;;;;;;2.60;69.97;98716.70;80733;1295;3053316;-65
2023/02/01 08:31:22;;;;;;;49.10;20.40;;;;;;;2.79;69.08;98708.29;82002;1295;3011187;-65
2023/02/01 08:33:52;;;;;;;53.20;23.00;;;;;;;2.97;68.84;98704.09;80761;1298;3051814;-64
2023/02/01 08:36:19;;;;;;;38.50;18.90;;;;;;;3.20;68.32;98700.18;82031;1295;3011205;-66
2023/02/01 08:38:46;;;;;;;46.30;21.70;;;;;;;3.30;67.90;98696.16;82046;1295;3011355;-64
2023/02/01 08:41:16;;;;;;;39.00;18.00;;;;;;;3.20;67.96;98697.45;80725;1295;3057410;-64
2023/02/01 08:43:42;;;;;;;35.70;17.10;;;;;;;3.14;67.72;98690.43;81994;1295;3011203;-64
2023/02/01 08:46:09;;;;;;;33.50;16.90;;;;;;;3.07;67.95;98687.75;82043;1295;3011115;-64
2023/02/01 08:48:38;;;;;;;34.70;17.30;;;;;;;3.12;68.42;98685.48;80766;1299;3051776;-64
2023/02/01 08:51:06;;;;;;;34.00;17.00;;;;;;;3.20;68.39;98679.61;82040;1295;3018217;-65
2023/02/01 08:53:33;;;;;;;34.70;17.40;;;;;;;3.23;68.12;98680.34;81999;1295;3011391;-64
2023/02/01 08:56:01;;;;;;;30.40;16.70;;;;;;;3.03;68.29;98689.87;80710;1298;3058437;-63
2023/02/01 08:58:28;;;;;;;30.40;15.40;;;;;;;2.87;68.90;98689.46;82023;1295;3012918;-64
2023/02/01 09:00:55;;;;;;;29.80;15.50;;;;;;;3.00;69.08;98694.30;82010;1295;3011492;-63
2023/02/01 09:07:00;;;;;;;34.70;17.00;;;;;;;3.30;68.43;98699.45;80264;1302;3012925;-62
2023/02/01 09:09:27;;;;;;;28.50;15.90;;;;;;;2.96;68.35;98696.17;79167;1308;3013371;-61
2023/02/01 09:11:54;;;;;;;39.70;19.50;;;;;;;3.03;68.57;98690.02;79054;1304;3012826;-62
2023/02/01 09:14:23;;;;;;;36.50;19.90;;;;;;;2.82;69.30;98694.17;77854;1304;3052090;-62
2023/02/01 09:16:50;;;;;;;34.40;17.60;;;;;;;2.98;68.87;98691.95;79026;1304;3013151;-61
2023/02/01 09:19:16;;;;;;;30.40;16.20;;;;;;;2.90;68.75;98688.85;77769;1302;4893793;-62
2023/02/01 09:21:44;;;;;;;25.30;14.30;;;;;;;2.68;69.52;98681.42;78003;1303;3028665;-62
2023/02/01 09:24:11;;;;;;;28.50;15.20;;;;;;;2.59;69.63;98685.23;79198;1302;3013465;-62
2023/02/01 09:26:38;;;;;;;24.20;13.20;;;;;;;2.40;70.36;98690.85;79455;1301;3011542;-63
2023/02/01 09:29:12;;;;;;;22.60;12.50;;;;;;;2.55;69.73;98685.40;78237;1301;3028548;-61
2023/02/01 09:31:41;;;;;;;22.80;12.30;;;;;;;2.43;70.39;98672.39;78839;1301;3011637;-62
2023/02/01 09:34:08;;;;;;;23.40;12.50;;;;;;;2.21;71.20;98674.11;79630;1298;3013053;-62
2023/02/01 09:36:36;;;;;;;25.00;11.70;;;;;;;2.40;70.88;98679.08;79404;1301;3011622;-65
2023/02/01 09:39:05;;;;;;;27.30;13.20;;;;;;;2.52;70.29;98675.52;78092;1301;3049587;-62
2023/02/01 09:41:40;;;;;;;24.80;13.30;;;;;;;2.39;70.77;98670.98;79131;1298;3013095;-61
2023/02/01 09:44:24;;;;;;;25.40;11.50;;;;;;;2.31;71.06;98666.13;78159;1301;3052775;-62
2023/02/01 09:46:59;;;;;;;22.50;10.90;;;;;;;2.13;71.26;98669.26;78150;1301;3052507;-62
2023/02/01 09:49:42;;;;;;;22.20;12.30;;;;;;;2.17;71.43;98665.11;78646;1297;3012700;-62
2023/02/01 09:52:10;;;;;;;23.90;11.20;;;;;;;2.19;71.56;98657.30;78030;1301;3068935;-62
2023/02/01 09:54:42;;;;;;;21.80;11.20;;;;;;;2.09;71.87;98658.02;79223;1299;3012829;-61
2023/02/01 09:57:21;;;;;;;21.00;11.80;;;;;;;2.19;71.71;98651.55;78121;1302;3050124;-63
2023/02/01 09:59:52;;;;;;;19.80;10.70;;;;;;;2.19;71.74;98653.31;78231;1298;3054300;-62
2023/02/01 10:02:22;;;;;;;28.10;14.50;;;;;;;2.17;71.32;98660.27;79606;1298;3012015;-61
2023/02/01 14:06:29;;;;;;;14.80;6.30;;;;;;;-0.49;83.79;98686.91;80018;1301;3013640;-60
2023/02/01 14:09:10;;;;;;;23.30;10.20;;;;;;;0.40;83.03;98683.42;77796;1307;3053216;-60
2023/02/01 14:11:50;;;;;;;27.70;13.10;;;;;;;1.48;79.50;98678.91;77686;1306;3050359;-60
2023/02/01 14:14:18;;;;;;;30.40;13.00;;;;;;;1.72;76.87;98679.46;77931;1303;3053800;-61
2023/02/01 14:16:53;;;;;;;31.70;14.20;;;;;;;1.61;76.56;98682.42;79028;1305;3013143;-60
2023/02/01 14:19:21;;;;;;;26.80;12.70;;;;;;;1.49;76.55;98678.55;76648;1314;4856549;-60
2023/02/01 14:21:56;;;;;;;26.90;12.20;;;;;;;1.10;77.33;98683.20;79285;1297;3014952;-61
2023/02/01 14:24:32;;;;;;;27.90;11.30;;;;;;;1.03;78.37;98691.52;78174;1300;3053380;-60
2023/02/01 14:27:21;;;;;;;21.90;10.10;;;;;;;0.91;78.38;98691.09;78121;1299;3049625;-60
2023/02/01 14:29:57;;;;;;;26.50;11.80;;;;;;;0.82;78.61;98691.90;78073;1299;3053164;-60
2023/02/01 14:32:38;;;;;;;25.80;11.50;;;;;;;0.83;79.14;98697.38;78155;1298;3052572;-60
2023/02/01 14:35:07;;;;;;;23.60;12.20;;;;;;;0.82;79.47;98702.39;78128;1299;3068866;-61
2023/02/01 14:37:36;;;;;;;25.50;11.00;;;;;;;0.72;78.86;98710.66;79566;1295;3011615;-61
2023/02/01 14:40:14;;;;;;;16.90;7.50;;;;;;;0.50;79.25;98708.26;79033;1299;3011631;-62
2023/02/01 14:42:42;;;;;;;19.10;7.70;;;;;;;1.01;79.14;98706.80;78069;1297;3049049;-61
2023/02/01 14:45:21;;;;;;;21.10;9.40;;;;;;;1.67;77.30;98710.69;79461;1300;3013529;-62
2023/02/01 14:48:04;;;;;;;16.90;8.30;;;;;;;1.84;76.51;98714.23;78194;1300;3053213;-61
2023/02/01 14:50:32;;;;;;;;;;;;;;;1.53;76.83;98714.12;78215;1298;3053136;-62
2023/02/01 14:53:08;;;;;;;16.50;7.80;;;;;;;1.17;76.85;98725.05;79363;1298;3019338;-62
2023/02/01 14:55:58;;;;;;;17.40;8.20;;;;;;;0.98;77.73;98721.20;78116;1300;3056490;-61
2023/02/01 14:58:26;;;;;;;20.50;10.20;;;;;;;0.73;78.19;98724.93;78041;1300;3049769;-61
2023/02/01 15:01:02;;;;;;;22.20;10.70;;;;;;;0.71;79.08;98728.14;79314;1296;3012134;-61
2023/02/01 15:03:54;;;;;;;23.80;10.90;;;;;;;0.61;79.24;98728.41;78317;1295;3051048;-57
2023/02/01 15:06:48;;;;;;;21.80;10.50;;;;;;;0.43;80.87;98731.56;78110;1300;3052950;-57
2023/02/01 15:09:37;;;;;;;19.70;10.00;;;;;;;0.42;80.95;98728.35;78140;1299;3052239;-57
2023/02/01 15:12:06;;;;;;;20.40;10.70;;;;;;;0.41;81.16;98727.85;78019;1300;3069205;-57
2023/02/01 15:14:35;;;;;;;13.10;6.80;;;;;;;0.43;81.73;98729.52;79316;1296;3013146;-57
2023/02/01 15:17:19;;;;;;;15.80;7.80;;;;;;;0.92;80.14;98733.10;78269;1296;3048143;-61
2023/02/01 15:20:02;;;;;;;15.90;7.60;;;;;;;1.72;76.93;98731.06;77987;1300;3053365;-61
2023/02/01 15:22:30;;;;;;;17.20;8.70;;;;;;;1.88;75.48;98730.48;78137;1303;3049667;-61
2023/02/01 15:25:00;;;;;;;18.60;9.10;;;;;;;1.71;75.76;98733.52;79263;1300;3012989;-60
2023/02/01 15:27:29;;;;;;;28.10;13.00;;;;;;;1.57;76.10;98737.98;78073;1300;3068792;-59
2023/02/01 15:30:32;;;;;;;26.30;12.60;;;;;;;1.41;76.35;98738.73;79150;1296;3012656;-60
2023/02/01 15:33:19;;;;;;;26.20;12.50;;;;;;;1.29;77.04;98740.01;77924;1300;3050460;-59
2023/02/01 15:35:54;;;;;;;25.20;10.50;;;;;;;1.18;77.69;98744.35;78110;1300;3053156;-60
2023/02/01 15:38:30;;;;;;;22.50;11.20;;;;;;;0.92;78.04;98745.70;78029;1297;3048703;-60
2023/02/01 15:41:23;;;;;;;22.70;11.30;;;;;;;0.94;78.74;98745.14;78087;1300;3052216;-62
2023/02/01 15:43:54;;;;;;;22.70;11.80;;;;;;;0.97;78.24;98738.80;78136;1300;3051556;-60
2023/02/01 15:46:35;;;;;;;27.00;12.70;;;;;;;0.88;78.59;98742.90;79259;1298;3011875;-62
2023/02/01 15:49:04;;;;;;;21.90;12.00;;;;;;;0.77;79.00;98740.33;78076;1298;3051346;-60
2023/02/01 15:51:32;;;;;;;28.70;13.20;;;;;;;0.68;79.60;98739.73;79263;1296;3014309;-57
2023/02/01 15:54:04;;;;;;;19.70;10.80;;;;;;;0.58;79.80;98744.71;79598;1300;3013086;-57
2023/02/01 15:56:36;;;;;;;20.90;9.70;;;;;;;0.98;79.08;98744.98;80613;1296;3049891;-58
2023/02/01 15:59:05;;;;;;;23.20;11.00;;;;;;;1.57;76.83;98746.63;81890;1296;3011707;-58
2023/02/01 16:01:37;;;;;;;27.40;13.60;;;;;;;1.83;75.48;98741.89;80668;1296;3026334;-57
2023/02/01 16:04:20;;;;;;;31.30;14.80;;;;;;;1.75;75.41;98746.66;81921;1295;3011252;-58
2023/02/01 16:07:00;;;;;;;30.90;15.20;;;;;;;1.64;75.52;98749.82;80674;1296;3050787;-58
2023/02/01 16:09:56;;;;;;;31.20;14.90;;;;;;;1.36;76.15;98751.15;80202;1300;3056548;-58
2023/02/01 16:12:29;;;;;;;26.50;13.50;;;;;;;1.22;76.94;98747.81;78078;1298;3049255;-57
2023/02/01 16:14:56;;;;;;;25.80;13.40;;;;;;;1.00;77.65;98751.49;79292;1296;3013180;-57
2023/02/01 16:17:24;;;;;;;30.00;14.30;;;;;;;0.90;77.94;98753.02;78112;1300;3048233;-57
2023/02/01 16:19:51;;;;;;;29.30;15.20;;;;;;;0.75;78.84;98752.98;79362;1300;3013929;-57
2023/02/01 16:22:21;;;;;;;31.70;14.20;;;;;;;0.62;79.42;98754.77;79344;1300;3012955;-57
2023/02/01 16:24:50;;;;;;;28.40;13.90;;;;;;;0.58;79.85;98757.46;78087;1299;3052100;-57
2023/02/01 16:27:17;;;;;;;29.10;14.10;;;;;;;0.49;79.86;98756.71;79317;1300;3013344;-57
2023/02/01 16:29:43;;;;;;;28.90;14.00;;;;;;;0.47;80.08;98756.08;79265;1298;3011741;-56
2023/02/01 16:32:19;;;;;;;29.00;14.10;;;;;;;0.51;80.70;98752.52;77990;1300;3027679;-56
2023/02/01 23:05:32;;;;;;;18.90;7.40;;;;;;;-0.95;94.06;98708.12;79868;1306;3013484;-62
2023/02/01 23:07:59;;;;;;;29.00;10.60;;;;;;;-0.42;92.97;98693.94;79032;1306;3014437;-61
2023/02/01 23:10:25;;;;;;;33.40;13.20;;;;;;;0.30;90.20;98695.10;78970;1300;3011392;-61
2023/02/01 23:12:54;;;;;;;28.70;12.10;;;;;;;0.59;87.25;98689.88;77839;1304;3051993;-63
2023/02/01 23:15:20;;;;;;;26.50;12.30;;;;;;;0.73;85.92;98694.95;79072;1307;3013168;-61
2023/02/01 23:17:47;;;;;;;25.90;12.00;;;;;;;0.45;86.11;98692.57;77783;1306;3011939;-63
2023/02/01 23:20:16;;;;;;;28.60;12.50;;;;;;;0.26;86.75;98687.14;78030;1302;3029141;-62
2023/02/01 23:22:44;;;;;;;31.60;13.00;;;;;;;-0.01;87.78;98691.73;79224;1303;3013720;-63
2023/02/01 23:25:13;;;;;;;30.20;12.20;;;;;;;-0.21;88.65;98689.23;79246;1304;3011648;-63
2023/02/01 23:27:46;;;;;;;27.40;12.20;;;;;;;-0.32;89.31;98691.96;77812;1303;3052028;-62
2023/02/01 23:30:12;;;;;;;20.30;7.40;;;;;;;-0.37;90.10;98690.20;79136;1298;3013685;-61
2023/02/01 23:32:39;;;;;;;19.00;8.20;;;;;;;0.03;89.42;98689.21;79251;1300;3011495;-63
2023/02/01 23:35:08;;;;;;;19.20;9.50;;;;;;;0.48;87.31;98691.10;78114;1301;3049383;-60
2023/02/01 23:37:36;;;;;;;17.10;8.50;;;;;;;0.55;86.45;98687.77;79234;1301;3013857;-62
2023/02/01 23:40:03;;;;;;;23.90;10.60;;;;;;;0.40;85.91;98691.34;79200;1304;3013108;-61
2023/02/01 23:42:32;;;;;;;28.40;12.00;;;;;;;0.14;87.16;98687.33;78054;1302;3049883;-60
2023/02/01 23:44:58;;;;;;;27.50;12.30;;;;;;;-0.04;88.01;98687.86;79257;1303;3013097;-62
2023/02/01 23:47:26;;;;;;;26.00;10.50;;;;;;;-0.25;88.81;98689.84;79169;1303;3011722;-61
2023/02/01 23:49:53;;;;;;;34.80;12.80;;;;;;;-0.18;89.34;98686.91;78047;1301;3029004;-62
2023/02/01 23:52:20;;;;;;;19.50;7.40;;;;;;;-0.32;90.10;98680.93;79242;1303;3018195;-60
2023/02/01 23:54:47;;;;;;;19.80;7.60;;;;;;;0.32;88.75;98679.86;79150;1302;3011944;-60
2023/02/01 23:57:14;;;;;;;24.90;10.00;;;;;;;0.63;86.48;98680.27;78017;1302;3026424;-62
2023/02/01 23:59:41;;;;;;;25.40;10.80;;;;;;;0.49;86.06;98674.00;79139;1302;3012918;-61
